sensor_id;sensor_type;location;lat;lon;timestamp;temperature;humidity
32640;DHT22;19049;52.524;11.468;2023-06-10T00:01:52;15.20;74.90
32640;DHT22;19049;52.524;11.468;2023-06-10T00:04:20;14.80;89.80
32640;DHT22;19049;52.524;11.468;2023-06-10T00:06:46;14.80;87.10
32640;DHT22;19049;52.524;11.468;2023-06-10T00:09:14;14.10;88.70
32640;DHT22;19049;52.524;11.468;2023-06-10T00:14:06;14.90;82.80
32640;DHT22;19049;52.524;11.468;2023-06-10T00:16:32;14.90;86.80
32640;DHT22;19049;52.524;11.468;2023-06-10T00:19:00;14.10;88.50
32640;DHT22;19049;52.524;11.468;2023-06-10T00:21:26;14.50;80.80
32640;DHT22;19049;52.524;11.468;2023-06-10T00:23:52;14.40;90.70
32640;DHT22;19049;52.524;11.468;2023-06-10T00:31:11;13.90;81.50
32640;DHT22;19049;52.524;11.468;2023-06-10T00:33:37;14.60;91.10
32640;DHT22;19049;52.524;11.468;2023-06-10T00:36:03;14.30;90.70
32640;DHT22;19049;52.524;11.468;2023-06-10T00:38:28;15.10;91.00
32640;DHT22;19049;52.524;11.468;2023-06-10T00:43:20;15.00;92.50
32640;DHT22;19049;52.524;11.468;2023-06-10T00:48:12;14.10;78.80
32640;DHT22;19049;52.524;11.468;2023-06-10T00:50:38;14.90;90.90
32640;DHT22;19049;52.524;11.468;2023-06-10T00:53:06;14.10;90.90
32640;DHT22;19049;52.524;11.468;2023-06-10T00:55:33;14.80;91.90
32640;DHT22;19049;52.524;11.468;2023-06-10T00:57:59;14.10;91.40
32640;DHT22;19049;52.524;11.468;2023-06-10T01:00:25;13.20;91.30
32640;DHT22;19049;52.524;11.468;2023-06-10T01:02:51;14.10;86.40
32640;DHT22;19049;52.524;11.468;2023-06-10T01:05:20;14.30;91.90
32640;DHT22;19049;52.524;11.468;2023-06-10T01:07:53;14.00;92.00
32640;DHT22;19049;52.524;11.468;2023-06-10T01:10:27;13.00;86.00
32640;DHT22;19049;52.524;11.468;2023-06-10T01:13:02;14.40;92.30
32640;DHT22;19049;52.524;11.468;2023-06-10T01:15:29;13.80;92.20
32640;DHT22;19049;52.524;11.468;2023-06-10T01:18:09;13.90;79.80
32640;DHT22;19049;52.524;11.468;2023-06-10T01:20:41;14.00;92.90
32640;DHT22;19049;52.524;11.468;2023-06-10T01:23:12;13.90;80.20
32640;DHT22;19049;52.524;11.468;2023-06-10T01:25:44;14.10;93.40
32640;DHT22;19049;52.524;11.468;2023-06-10T01:31:28;14.30;93.40
32640;DHT22;19049;52.524;11.468;2023-06-10T01:34:00;13.80;80.80
32640;DHT22;19049;52.524;11.468;2023-06-10T01:36:28;13.70;80.70
32640;DHT22;19049;52.524;11.468;2023-06-10T01:38:55;14.20;89.10
32640;DHT22;19049;52.524;11.468;2023-06-10T01:41:22;13.80;93.70
32640;DHT22;19049;52.524;11.468;2023-06-10T01:43:49;14.20;90.20
32640;DHT22;19049;52.524;11.468;2023-06-10T01:46:15;13.50;89.40
32640;DHT22;19049;52.524;11.468;2023-06-10T01:53:37;13.80;88.10
32640;DHT22;19049;52.524;11.468;2023-06-10T01:58:28;13.90;96.00
32640;DHT22;19049;52.524;11.468;2023-06-10T02:00:54;13.70;95.50
32640;DHT22;19049;52.524;11.468;2023-06-10T02:08:12;13.80;92.80
32640;DHT22;19049;52.524;11.468;2023-06-10T02:13:03;13.90;91.10
32640;DHT22;19049;52.524;11.468;2023-06-10T02:17:55;13.70;90.70
32640;DHT22;19049;52.524;11.468;2023-06-10T02:20:21;13.90;94.60
32640;DHT22;19049;52.524;11.468;2023-06-10T02:22:47;13.30;93.30
32640;DHT22;19049;52.524;11.468;2023-06-10T02:25:12;13.50;89.10
32640;DHT22;19049;52.524;11.468;2023-06-10T02:30:05;13.20;95.40
32640;DHT22;19049;52.524;11.468;2023-06-10T02:32:34;13.10;97.60
32640;DHT22;19049;52.524;11.468;2023-06-10T02:34:59;13.10;95.60
32640;DHT22;19049;52.524;11.468;2023-06-10T02:44:43;13.10;98.20
32640;DHT22;19049;52.524;11.468;2023-06-10T02:47:09;13.00;95.60
32640;DHT22;19049;52.524;11.468;2023-06-10T02:49:34;12.90;95.80
32640;DHT22;19049;52.524;11.468;2023-06-10T02:52:00;13.40;93.50
32640;DHT22;19049;52.524;11.468;2023-06-10T02:56:52;13.40;96.10
32640;DHT22;19049;52.524;11.468;2023-06-10T02:59:18;13.10;93.30
32640;DHT22;19049;52.524;11.468;2023-06-10T03:01:45;13.10;94.90
32640;DHT22;19049;52.524;11.468;2023-06-10T03:09:06;13.00;87.20
32640;DHT22;19049;52.524;11.468;2023-06-10T03:21:19;13.50;91.40
32640;DHT22;19049;52.524;11.468;2023-06-10T03:23:45;13.20;97.00
32640;DHT22;19049;52.524;11.468;2023-06-10T03:26:11;13.00;95.50
32640;DHT22;19049;52.524;11.468;2023-06-10T03:28:39;13.00;96.90
32640;DHT22;19049;52.524;11.468;2023-06-10T03:31:05;12.90;92.90
32640;DHT22;19049;52.524;11.468;2023-06-10T03:35:57;12.90;91.70
32640;DHT22;19049;52.524;11.468;2023-06-10T03:38:23;13.40;97.30
32640;DHT22;19049;52.524;11.468;2023-06-10T03:40:49;13.70;97.40
32640;DHT22;19049;52.524;11.468;2023-06-10T03:50:34;12.90;92.50
32640;DHT22;19049;52.524;11.468;2023-06-10T03:52:59;12.70;97.30
32640;DHT22;19049;52.524;11.468;2023-06-10T03:55:25;14.00;97.50
32640;DHT22;19049;52.524;11.468;2023-06-10T03:57:51;13.10;94.70
32640;DHT22;19049;52.524;11.468;2023-06-10T04:00:17;13.00;97.50
32640;DHT22;19049;52.524;11.468;2023-06-10T04:02:43;13.60;90.10
32640;DHT22;19049;52.524;11.468;2023-06-10T04:05:12;13.60;97.90
32640;DHT22;19049;52.524;11.468;2023-06-10T04:07:39;14.30;99.90
32640;DHT22;19049;52.524;11.468;2023-06-10T04:10:06;13.80;90.20
32640;DHT22;19049;52.524;11.468;2023-06-10T04:17:25;13.30;97.50
32640;DHT22;19049;52.524;11.468;2023-06-10T04:19:50;15.20;98.50
32640;DHT22;19049;52.524;11.468;2023-06-10T04:29:35;15.60;95.70
32640;DHT22;19049;52.524;11.468;2023-06-10T04:32:02;14.90;96.80
32640;DHT22;19049;52.524;11.468;2023-06-10T04:36:54;15.90;90.80
32640;DHT22;19049;52.524;11.468;2023-06-10T05:10:59;18.60;95.20
32640;DHT22;19049;52.524;11.468;2023-06-10T05:13:25;18.40;95.00
32640;DHT22;19049;52.524;11.468;2023-06-10T05:18:17;18.40;94.60
32640;DHT22;19049;52.524;11.468;2023-06-10T05:23:08;18.90;92.90
32640;DHT22;19049;52.524;11.468;2023-06-10T05:37:44;19.50;96.30
32640;DHT22;19049;52.524;11.468;2023-06-10T05:40:11;20.80;91.00
32640;DHT22;19049;52.524;11.468;2023-06-10T05:45:03;20.60;84.40
32640;DHT22;19049;52.524;11.468;2023-06-10T05:49:55;19.80;87.50
32640;DHT22;19049;52.524;11.468;2023-06-10T05:54:46;20.90;89.10
32640;DHT22;19049;52.524;11.468;2023-06-10T05:57:12;21.10;92.60
32640;DHT22;19049;52.524;11.468;2023-06-10T05:59:38;21.40;91.70
32640;DHT22;19049;52.524;11.468;2023-06-10T06:09:22;21.80;91.40
32640;DHT22;19049;52.524;11.468;2023-06-10T06:11:47;22.70;91.70
32640;DHT22;19049;52.524;11.468;2023-06-10T06:14:13;22.60;91.10
32640;DHT22;19049;52.524;11.468;2023-06-10T06:16:39;23.10;91.30
32640;DHT22;19049;52.524;11.468;2023-06-10T06:21:30;23.30;90.80
32640;DHT22;19049;52.524;11.468;2023-06-10T06:26:23;22.50;90.80
32640;DHT22;19049;52.524;11.468;2023-06-10T06:28:48;23.10;78.90
32640;DHT22;19049;52.524;11.468;2023-06-10T06:31:14;23.30;78.60
32640;DHT22;19049;52.524;11.468;2023-06-10T06:33:40;23.40;78.40
32640;DHT22;19049;52.524;11.468;2023-06-10T06:36:08;23.50;78.30
32640;DHT22;19049;52.524;11.468;2023-06-10T06:41:00;23.70;77.00
32640;DHT22;19049;52.524;11.468;2023-06-10T06:43:29;23.70;90.40
32640;DHT22;19049;52.524;11.468;2023-06-10T06:45:56;24.90;90.10
32640;DHT22;19049;52.524;11.468;2023-06-10T06:50:48;25.10;90.00
32640;DHT22;19049;52.524;11.468;2023-06-10T06:53:14;24.50;75.90
32640;DHT22;19049;52.524;11.468;2023-06-10T06:55:39;24.70;74.90
32640;DHT22;19049;52.524;11.468;2023-06-10T06:58:05;24.70;74.70
32640;DHT22;19049;52.524;11.468;2023-06-10T07:00:31;24.90;74.40
32640;DHT22;19049;52.524;11.468;2023-06-10T07:02:57;25.10;90.70
32640;DHT22;19049;52.524;11.468;2023-06-10T07:05:23;25.10;73.40
32640;DHT22;19049;52.524;11.468;2023-06-10T07:07:51;25.20;73.50
32640;DHT22;19049;52.524;11.468;2023-06-10T07:10:23;25.70;88.50
32640;DHT22;19049;52.524;11.468;2023-06-10T07:12:49;25.60;72.80
32640;DHT22;19049;52.524;11.468;2023-06-10T07:20:08;26.30;88.50
32640;DHT22;19049;52.524;11.468;2023-06-10T07:22:33;26.30;71.10
32640;DHT22;19049;52.524;11.468;2023-06-10T07:24:59;26.50;70.90
32640;DHT22;19049;52.524;11.468;2023-06-10T07:27:25;26.70;69.60
32640;DHT22;19049;52.524;11.468;2023-06-10T07:29:51;26.80;68.70
32640;DHT22;19049;52.524;11.468;2023-06-10T07:32:17;26.90;69.50
32640;DHT22;19049;52.524;11.468;2023-06-10T07:34:43;26.40;81.60
32640;DHT22;19049;52.524;11.468;2023-06-10T07:37:09;26.70;81.90
32640;DHT22;19049;52.524;11.468;2023-06-10T07:39:34;27.30;68.10
32640;DHT22;19049;52.524;11.468;2023-06-10T07:42:00;27.40;68.00
32640;DHT22;19049;52.524;11.468;2023-06-10T07:44:26;27.50;66.80
32640;DHT22;19049;52.524;11.468;2023-06-10T07:46:52;27.60;66.50
32640;DHT22;19049;52.524;11.468;2023-06-10T07:49:17;27.70;66.10
32640;DHT22;19049;52.524;11.468;2023-06-10T07:51:43;27.70;65.80
32640;DHT22;19049;52.524;11.468;2023-06-10T07:54:08;27.70;64.80
32640;DHT22;19049;52.524;11.468;2023-06-10T07:56:34;27.70;64.30
32640;DHT22;19049;52.524;11.468;2023-06-10T07:59:00;27.80;64.40
32640;DHT22;19049;52.524;11.468;2023-06-10T08:01:25;27.80;64.20
32640;DHT22;19049;52.524;11.468;2023-06-10T08:03:51;27.90;64.50
32640;DHT22;19049;52.524;11.468;2023-06-10T08:06:17;28.00;64.00
32640;DHT22;19049;52.524;11.468;2023-06-10T08:08:43;28.10;64.40
32640;DHT22;19049;52.524;11.468;2023-06-10T08:11:11;28.20;64.00
32640;DHT22;19049;52.524;11.468;2023-06-10T08:13:36;28.40;63.80
32640;DHT22;19049;52.524;11.468;2023-06-10T08:16:02;28.50;64.60
32640;DHT22;19049;52.524;11.468;2023-06-10T08:20:54;28.60;73.60
32640;DHT22;19049;52.524;11.468;2023-06-10T08:28:12;29.60;71.50
32640;DHT22;19049;52.524;11.468;2023-06-10T08:37:56;29.60;68.80
32640;DHT22;19049;52.524;11.468;2023-06-10T08:42:56;29.90;68.30
32640;DHT22;19049;52.524;11.468;2023-06-10T08:45:29;31.10;67.90
32640;DHT22;19049;52.524;11.468;2023-06-10T08:47:57;30.80;57.50
32640;DHT22;19049;52.524;11.468;2023-06-10T08:52:54;30.80;56.60
32640;DHT22;19049;52.524;11.468;2023-06-10T08:55:31;30.90;56.80
32640;DHT22;19049;52.524;11.468;2023-06-10T08:57:59;31.20;58.40
32640;DHT22;19049;52.524;11.468;2023-06-10T09:00:26;31.00;56.20
32640;DHT22;19049;52.524;11.468;2023-06-10T09:05:19;30.40;57.60
32640;DHT22;19049;52.524;11.468;2023-06-10T09:07:46;31.10;53.00
32640;DHT22;19049;52.524;11.468;2023-06-10T09:15:06;31.50;62.80
32640;DHT22;19049;52.524;11.468;2023-06-10T09:19:59;31.10;60.20
32640;DHT22;19049;52.524;11.468;2023-06-10T09:25:02;31.20;54.20
32640;DHT22;19049;52.524;11.468;2023-06-10T09:27:30;31.90;62.00
32640;DHT22;19049;52.524;11.468;2023-06-10T09:32:24;31.30;60.70
32640;DHT22;19049;52.524;11.468;2023-06-10T09:37:25;31.30;52.70
32640;DHT22;19049;52.524;11.468;2023-06-10T09:40:07;31.20;60.00
32640;DHT22;19049;52.524;11.468;2023-06-10T09:42:35;31.60;52.80
32640;DHT22;19049;52.524;11.468;2023-06-10T09:45:04;31.10;54.60
32640;DHT22;19049;52.524;11.468;2023-06-10T09:52:26;32.00;59.40
32640;DHT22;19049;52.524;11.468;2023-06-10T09:54:52;32.00;51.30
32640;DHT22;19049;52.524;11.468;2023-06-10T09:57:20;32.10;51.30
32640;DHT22;19049;52.524;11.468;2023-06-10T09:59:46;32.90;58.60
32640;DHT22;19049;52.524;11.468;2023-06-10T10:02:18;32.50;57.80
32640;DHT22;19049;52.524;11.468;2023-06-10T10:04:46;32.80;57.80
32640;DHT22;19049;52.524;11.468;2023-06-10T10:07:12;32.80;57.80
32640;DHT22;19049;52.524;11.468;2023-06-10T10:09:39;32.80;51.60
32640;DHT22;19049;52.524;11.468;2023-06-10T10:12:14;32.70;52.30
32640;DHT22;19049;52.524;11.468;2023-06-10T10:14:46;32.90;57.10
32640;DHT22;19049;52.524;11.468;2023-06-10T10:17:14;31.60;56.50
32640;DHT22;19049;52.524;11.468;2023-06-10T10:19:46;32.80;56.90
32640;DHT22;19049;52.524;11.468;2023-06-10T10:22:19;32.10;56.20
32640;DHT22;19049;52.524;11.468;2023-06-10T10:24:55;32.60;49.70
32640;DHT22;19049;52.524;11.468;2023-06-10T10:27:27;32.90;51.40
32640;DHT22;19049;52.524;11.468;2023-06-10T10:29:54;33.60;56.50
32640;DHT22;19049;52.524;11.468;2023-06-10T10:32:34;32.80;48.70
32640;DHT22;19049;52.524;11.468;2023-06-10T10:37:26;33.50;55.10
32640;DHT22;19049;52.524;11.468;2023-06-10T10:39:52;33.50;58.10
32640;DHT22;19049;52.524;11.468;2023-06-10T10:42:18;33.20;56.40
32640;DHT22;19049;52.524;11.468;2023-06-10T10:44:44;33.40;53.40
32640;DHT22;19049;52.524;11.468;2023-06-10T10:47:11;32.70;52.60
32640;DHT22;19049;52.524;11.468;2023-06-10T10:49:39;32.90;53.00
32640;DHT22;19049;52.524;11.468;2023-06-10T10:52:11;33.10;52.20
32640;DHT22;19049;52.524;11.468;2023-06-10T10:57:18;32.80;48.00
32640;DHT22;19049;52.524;11.468;2023-06-10T11:02:14;33.70;51.90
32640;DHT22;19049;52.524;11.468;2023-06-10T11:04:45;33.50;51.00
32640;DHT22;19049;52.524;11.468;2023-06-10T11:07:11;33.40;51.30
32640;DHT22;19049;52.524;11.468;2023-06-10T11:10:06;33.10;51.30
32640;DHT22;19049;52.524;11.468;2023-06-10T11:12:51;33.10;45.10
32640;DHT22;19049;52.524;11.468;2023-06-10T11:15:22;32.60;50.70
32640;DHT22;19049;52.524;11.468;2023-06-10T11:26:29;33.10;50.30
32640;DHT22;19049;52.524;11.468;2023-06-10T11:31:28;34.00;50.70
32640;DHT22;19049;52.524;11.468;2023-06-10T11:33:56;34.10;48.20
32640;DHT22;19049;52.524;11.468;2023-06-10T11:36:23;33.60;43.80
32640;DHT22;19049;52.524;11.468;2023-06-10T11:38:50;34.10;49.80
32640;DHT22;19049;52.524;11.468;2023-06-10T11:43:45;34.20;49.90
32640;DHT22;19049;52.524;11.468;2023-06-10T11:46:14;34.10;49.50
32640;DHT22;19049;52.524;11.468;2023-06-10T11:49:10;33.70;41.80
32640;DHT22;19049;52.524;11.468;2023-06-10T11:51:38;33.80;42.50
32640;DHT22;19049;52.524;11.468;2023-06-10T11:54:04;34.40;49.30
32640;DHT22;19049;52.524;11.468;2023-06-10T11:56:31;33.50;48.30
32640;DHT22;19049;52.524;11.468;2023-06-10T11:59:10;34.10;48.70
32640;DHT22;19049;52.524;11.468;2023-06-10T12:01:43;33.90;41.40
32640;DHT22;19049;52.524;11.468;2023-06-10T12:04:11;34.30;48.10
32640;DHT22;19049;52.524;11.468;2023-06-10T12:06:45;34.00;41.20
32640;DHT22;19049;52.524;11.468;2023-06-10T12:11:58;34.20;40.60
32640;DHT22;19049;52.524;11.468;2023-06-10T12:14:58;34.20;40.70
32640;DHT22;19049;52.524;11.468;2023-06-10T12:17:36;33.90;39.10
32640;DHT22;19049;52.524;11.468;2023-06-10T12:20:09;34.50;38.10
32640;DHT22;19049;52.524;11.468;2023-06-10T12:22:49;34.60;40.40
32640;DHT22;19049;52.524;11.468;2023-06-10T12:25:15;34.80;41.10
32640;DHT22;19049;52.524;11.468;2023-06-10T12:27:51;34.90;40.00
32640;DHT22;19049;52.524;11.468;2023-06-10T12:30:23;34.90;38.20
32640;DHT22;19049;52.524;11.468;2023-06-10T12:32:50;34.80;39.10
32640;DHT22;19049;52.524;11.468;2023-06-10T12:35:20;34.80;39.60
32640;DHT22;19049;52.524;11.468;2023-06-10T12:37:58;34.90;39.90
32640;DHT22;19049;52.524;11.468;2023-06-10T12:40:30;35.00;38.40
32640;DHT22;19049;52.524;11.468;2023-06-10T12:42:57;35.00;37.90
32640;DHT22;19049;52.524;11.468;2023-06-10T12:45:31;35.00;38.50
32640;DHT22;19049;52.524;11.468;2023-06-10T12:48:19;35.00;37.70
32640;DHT22;19049;52.524;11.468;2023-06-10T12:50:57;35.00;37.70
32640;DHT22;19049;52.524;11.468;2023-06-10T12:53:24;35.10;38.10
32640;DHT22;19049;52.524;11.468;2023-06-10T12:55:50;35.20;38.00
32640;DHT22;19049;52.524;11.468;2023-06-10T12:58:16;35.30;37.40
32640;DHT22;19049;52.524;11.468;2023-06-10T13:00:42;35.30;37.20
32640;DHT22;19049;52.524;11.468;2023-06-10T13:03:09;35.50;37.80
32640;DHT22;19049;52.524;11.468;2023-06-10T13:05:38;35.80;37.10
32640;DHT22;19049;52.524;11.468;2023-06-10T13:08:08;35.80;37.50
32640;DHT22;19049;52.524;11.468;2023-06-10T13:10:36;36.00;37.20
32640;DHT22;19049;52.524;11.468;2023-06-10T13:13:02;36.20;36.80
32640;DHT22;19049;52.524;11.468;2023-06-10T13:15:30;36.20;36.30
32640;DHT22;19049;52.524;11.468;2023-06-10T13:17:56;35.90;35.70
32640;DHT22;19049;52.524;11.468;2023-06-10T13:20:21;35.60;35.30
32640;DHT22;19049;52.524;11.468;2023-06-10T13:22:48;35.30;35.80
32640;DHT22;19049;52.524;11.468;2023-06-10T13:25:14;35.10;36.30
32640;DHT22;19049;52.524;11.468;2023-06-10T13:27:40;35.00;36.20
32640;DHT22;19049;52.524;11.468;2023-06-10T13:30:08;35.10;36.80
32640;DHT22;19049;52.524;11.468;2023-06-10T13:32:35;35.20;36.40
32640;DHT22;19049;52.524;11.468;2023-06-10T13:35:01;35.40;36.50
32640;DHT22;19049;52.524;11.468;2023-06-10T13:37:26;35.60;36.10
32640;DHT22;19049;52.524;11.468;2023-06-10T13:39:52;35.70;35.60
32640;DHT22;19049;52.524;11.468;2023-06-10T13:42:18;35.70;35.30
32640;DHT22;19049;52.524;11.468;2023-06-10T13:44:44;35.80;35.30
32640;DHT22;19049;52.524;11.468;2023-06-10T13:47:09;36.00;35.80
32640;DHT22;19049;52.524;11.468;2023-06-10T13:49:36;36.20;36.60
32640;DHT22;19049;52.524;11.468;2023-06-10T13:52:02;36.70;43.20
32640;DHT22;19049;52.524;11.468;2023-06-10T13:54:27;37.00;43.70
32640;DHT22;19049;52.524;11.468;2023-06-10T13:56:53;36.60;46.80
32640;DHT22;19049;52.524;11.468;2023-06-10T13:59:19;36.60;38.80
32640;DHT22;19049;52.524;11.468;2023-06-10T14:01:46;37.40;39.10
32640;DHT22;19049;52.524;11.468;2023-06-10T14:04:11;36.30;40.30
32640;DHT22;19049;52.524;11.468;2023-06-10T14:06:37;37.40;33.90
32640;DHT22;19049;52.524;11.468;2023-06-10T14:09:03;37.60;33.90
32640;DHT22;19049;52.524;11.468;2023-06-10T14:11:28;37.90;33.30
32640;DHT22;19049;52.524;11.468;2023-06-10T14:13:54;38.00;33.00
32640;DHT22;19049;52.524;11.468;2023-06-10T14:16:24;37.60;40.10
32640;DHT22;19049;52.524;11.468;2023-06-10T14:18:50;38.00;31.80
32640;DHT22;19049;52.524;11.468;2023-06-10T14:21:19;37.80;31.40
32640;DHT22;19049;52.524;11.468;2023-06-10T14:23:45;37.60;31.30
32640;DHT22;19049;52.524;11.468;2023-06-10T14:26:11;37.30;31.00
32640;DHT22;19049;52.524;11.468;2023-06-10T14:28:36;36.70;39.80
32640;DHT22;19049;52.524;11.468;2023-06-10T14:31:02;35.80;38.70
32640;DHT22;19049;52.524;11.468;2023-06-10T14:33:28;36.00;32.30
32640;DHT22;19049;52.524;11.468;2023-06-10T14:35:54;35.80;40.50
32640;DHT22;19049;52.524;11.468;2023-06-10T14:38:20;36.00;41.20
32640;DHT22;19049;52.524;11.468;2023-06-10T14:40:45;34.40;39.50
32640;DHT22;19049;52.524;11.468;2023-06-10T14:43:11;33.90;43.40
32640;DHT22;19049;52.524;11.468;2023-06-10T14:45:38;34.60;34.40
32640;DHT22;19049;52.524;11.468;2023-06-10T14:48:04;34.40;35.00
32640;DHT22;19049;52.524;11.468;2023-06-10T14:50:30;34.00;42.70
32640;DHT22;19049;52.524;11.468;2023-06-10T14:52:56;34.00;43.30
32640;DHT22;19049;52.524;11.468;2023-06-10T14:55:21;33.70;41.20
32640;DHT22;19049;52.524;11.468;2023-06-10T14:57:50;33.00;40.80
32640;DHT22;19049;52.524;11.468;2023-06-10T15:00:16;32.90;41.60
32640;DHT22;19049;52.524;11.468;2023-06-10T15:02:46;32.70;41.40
32640;DHT22;19049;52.524;11.468;2023-06-10T15:05:15;32.30;42.00
32640;DHT22;19049;52.524;11.468;2023-06-10T15:07:41;32.10;42.50
32640;DHT22;19049;52.524;11.468;2023-06-10T15:10:07;32.50;43.80
32640;DHT22;19049;52.524;11.468;2023-06-10T15:12:34;31.20;37.70
32640;DHT22;19049;52.524;11.468;2023-06-10T15:17:25;31.30;45.30
32640;DHT22;19049;52.524;11.468;2023-06-10T15:19:51;31.00;47.20
32640;DHT22;19049;52.524;11.468;2023-06-10T15:22:17;30.90;38.60
32640;DHT22;19049;52.524;11.468;2023-06-10T15:24:42;30.70;38.90
32640;DHT22;19049;52.524;11.468;2023-06-10T15:27:08;30.60;39.50
32640;DHT22;19049;52.524;11.468;2023-06-10T15:29:34;30.60;40.30
32640;DHT22;19049;52.524;11.468;2023-06-10T15:31:59;30.60;39.40
32640;DHT22;19049;52.524;11.468;2023-06-10T15:34:25;30.60;39.10
32640;DHT22;19049;52.524;11.468;2023-06-10T15:36:51;30.50;39.20
32640;DHT22;19049;52.524;11.468;2023-06-10T15:39:16;30.50;39.00
32640;DHT22;19049;52.524;11.468;2023-06-10T15:44:10;30.10;44.00
32640;DHT22;19049;52.524;11.468;2023-06-10T15:49:02;29.30;41.50
32640;DHT22;19049;52.524;11.468;2023-06-10T15:51:28;30.40;43.70
32640;DHT22;19049;52.524;11.468;2023-06-10T15:53:54;30.20;46.60
32640;DHT22;19049;52.524;11.468;2023-06-10T15:58:46;28.90;40.60
32640;DHT22;19049;52.524;11.468;2023-06-10T16:01:12;29.30;48.00
32640;DHT22;19049;52.524;11.468;2023-06-10T16:03:40;28.80;46.60
32640;DHT22;19049;52.524;11.468;2023-06-10T16:06:05;29.00;44.40
32640;DHT22;19049;52.524;11.468;2023-06-10T16:08:31;28.00;47.20
32640;DHT22;19049;52.524;11.468;2023-06-10T16:10:57;29.20;48.60
32640;DHT22;19049;52.524;11.468;2023-06-10T16:13:22;28.60;48.20
32640;DHT22;19049;52.524;11.468;2023-06-10T16:18:14;28.60;48.70
32640;DHT22;19049;52.524;11.468;2023-06-10T16:20:40;28.90;51.40
32640;DHT22;19049;52.524;11.468;2023-06-10T16:28:00;29.00;49.70
32640;DHT22;19049;52.524;11.468;2023-06-10T16:30:26;29.20;49.30
32640;DHT22;19049;52.524;11.468;2023-06-10T16:32:51;30.40;50.00
32640;DHT22;19049;52.524;11.468;2023-06-10T16:35:17;30.00;39.40
32640;DHT22;19049;52.524;11.468;2023-06-10T16:37:43;29.40;46.90
32640;DHT22;19049;52.524;11.468;2023-06-10T16:52:19;29.50;52.20
32640;DHT22;19049;52.524;11.468;2023-06-10T17:04:29;27.50;52.00
32640;DHT22;19049;52.524;11.468;2023-06-10T17:09:21;27.50;43.30
32640;DHT22;19049;52.524;11.468;2023-06-10T17:16:39;26.70;49.50
32640;DHT22;19049;52.524;11.468;2023-06-10T17:19:05;27.50;51.20
32640;DHT22;19049;52.524;11.468;2023-06-10T17:26:23;27.00;58.30
32640;DHT22;19049;52.524;11.468;2023-06-10T17:28:50;27.10;55.70
32640;DHT22;19049;52.524;11.468;2023-06-10T17:31:15;27.20;50.10
32640;DHT22;19049;52.524;11.468;2023-06-10T17:36:07;28.10;49.60
32640;DHT22;19049;52.524;11.468;2023-06-10T17:40:58;27.50;48.70
32640;DHT22;19049;52.524;11.468;2023-06-10T17:43:24;28.60;48.30
32640;DHT22;19049;52.524;11.468;2023-06-10T17:48:17;29.20;46.20
32640;DHT22;19049;52.524;11.468;2023-06-10T17:53:09;28.60;52.90
32640;DHT22;19049;52.524;11.468;2023-06-10T17:55:35;29.00;53.20
32640;DHT22;19049;52.524;11.468;2023-06-10T17:58:01;29.20;52.90
32640;DHT22;19049;52.524;11.468;2023-06-10T18:00:27;28.50;52.50
32640;DHT22;19049;52.524;11.468;2023-06-10T18:02:53;28.20;52.30
32640;DHT22;19049;52.524;11.468;2023-06-10T18:05:20;28.50;49.80
32640;DHT22;19049;52.524;11.468;2023-06-10T18:10:11;28.30;53.00
32640;DHT22;19049;52.524;11.468;2023-06-10T18:15:04;27.70;45.00
32640;DHT22;19049;52.524;11.468;2023-06-10T18:24:50;27.20;52.50
32640;DHT22;19049;52.524;11.468;2023-06-10T18:27:15;27.40;55.40
32640;DHT22;19049;52.524;11.468;2023-06-10T18:29:41;27.30;54.40
32640;DHT22;19049;52.524;11.468;2023-06-10T18:32:07;25.90;50.70
32640;DHT22;19049;52.524;11.468;2023-06-10T18:37:01;26.20;55.60
32640;DHT22;19049;52.524;11.468;2023-06-10T18:39:28;26.30;55.70
32640;DHT22;19049;52.524;11.468;2023-06-10T18:41:53;26.10;55.80
32640;DHT22;19049;52.524;11.468;2023-06-10T18:46:45;26.10;56.10
32640;DHT22;19049;52.524;11.468;2023-06-10T18:49:11;26.30;55.70
32640;DHT22;19049;52.524;11.468;2023-06-10T18:51:36;25.00;55.00
32640;DHT22;19049;52.524;11.468;2023-06-10T18:56:28;25.80;55.50
32640;DHT22;19049;52.524;11.468;2023-06-10T19:03:47;25.70;55.40
32640;DHT22;19049;52.524;11.468;2023-06-10T19:11:05;25.60;51.90
32640;DHT22;19049;52.524;11.468;2023-06-10T19:13:31;24.70;54.30
32640;DHT22;19049;52.524;11.468;2023-06-10T19:15:57;25.60;61.10
32640;DHT22;19049;52.524;11.468;2023-06-10T19:20:50;24.70;49.30
32640;DHT22;19049;52.524;11.468;2023-06-10T19:25:42;25.40;61.30
32640;DHT22;19049;52.524;11.468;2023-06-10T19:30:34;24.50;59.30
32640;DHT22;19049;52.524;11.468;2023-06-10T19:33:00;25.50;61.60
32640;DHT22;19049;52.524;11.468;2023-06-10T19:42:43;23.60;56.30
32640;DHT22;19049;52.524;11.468;2023-06-10T19:45:09;24.20;56.90
32640;DHT22;19049;52.524;11.468;2023-06-10T19:47:35;24.00;57.30
32640;DHT22;19049;52.524;11.468;2023-06-10T19:50:01;24.30;48.30
32640;DHT22;19049;52.524;11.468;2023-06-10T19:52:26;24.20;48.80
32640;DHT22;19049;52.524;11.468;2023-06-10T19:54:52;24.00;48.80
32640;DHT22;19049;52.524;11.468;2023-06-10T19:57:18;23.90;48.80
32640;DHT22;19049;52.524;11.468;2023-06-10T19:59:43;23.80;49.30
32640;DHT22;19049;52.524;11.468;2023-06-10T20:02:09;23.70;49.50
32640;DHT22;19049;52.524;11.468;2023-06-10T20:04:34;23.50;49.70
32640;DHT22;19049;52.524;11.468;2023-06-10T20:07:00;22.60;60.20
32640;DHT22;19049;52.524;11.468;2023-06-10T20:09:26;22.20;59.70
32640;DHT22;19049;52.524;11.468;2023-06-10T20:21:36;21.80;55.20
32640;DHT22;19049;52.524;11.468;2023-06-10T20:24:06;22.00;50.80
32640;DHT22;19049;52.524;11.468;2023-06-10T20:26:32;22.50;61.30
32640;DHT22;19049;52.524;11.468;2023-06-10T20:28:58;21.20;57.50
32640;DHT22;19049;52.524;11.468;2023-06-10T20:33:52;21.10;53.60
32640;DHT22;19049;52.524;11.468;2023-06-10T20:41:11;21.00;64.60
32640;DHT22;19049;52.524;11.468;2023-06-10T20:43:37;21.10;60.80
32640;DHT22;19049;52.524;11.468;2023-06-10T20:48:29;22.30;55.30
32640;DHT22;19049;52.524;11.468;2023-06-10T20:50:54;21.80;57.80
32640;DHT22;19049;52.524;11.468;2023-06-10T20:53:21;21.30;67.90
32640;DHT22;19049;52.524;11.468;2023-06-10T21:05:32;21.40;68.50
32640;DHT22;19049;52.524;11.468;2023-06-10T21:15:16;21.80;55.80
32640;DHT22;19049;52.524;11.468;2023-06-10T21:42:03;21.80;71.40
32640;DHT22;19049;52.524;11.468;2023-06-10T21:44:28;20.80;71.10
32640;DHT22;19049;52.524;11.468;2023-06-10T21:54:12;20.60;79.10
32640;DHT22;19049;52.524;11.468;2023-06-10T22:04:02;20.80;58.50